Philadelphia, Pennsylvania
Traffic Map
Current Weather Conditions
Philadelphia, Pennsylvania
Few Clouds
Few Clouds
58°
Feels Like: 58°
Wind Chill: 58° Ceiling: Unl
Heat Index: 58° Visibility: 7mi
Dew Point: 57° Wind: 7mph
Humidity: 97% Direction: 200° (SSW)
Pressure: 30.34in Gusts: 0mph
Raw Report DataKPHL 210554Z 20006KT 7SM FEW007 14/14 A3034 RMK AO2 SLP273 T01440139 10189 20133 58003 $
Traffic Incident Summary
Active as of:
Severity:
Category:
InformationThere was an issue retrieving the traffic information for this location. Please try a different location or try again shortly.
Advertisements